sensor_id;sensor_type;location;lat;lon;timestamp;P1;durP1;ratioP1;P2;durP2;ratioP2
20170;SDS011;10245;51.344;6.620;2023-03-22T00:02:03;8.27;;;6.35;;
20170;SDS011;10245;51.344;6.620;2023-03-22T00:04:28;10.10;;;6.60;;
20170;SDS011;10245;51.344;6.620;2023-03-22T00:06:51;10.90;;;6.40;;
20170;SDS011;10245;51.344;6.620;2023-03-22T00:09:14;11.23;;;6.13;;
20170;SDS011;10245;51.344;6.620;2023-03-22T00:11:38;10.23;;;6.40;;
20170;SDS011;10245;51.344;6.620;2023-03-22T00:14:01;9.90;;;6.28;;
20170;SDS011;10245;51.344;6.620;2023-03-22T00:16:25;11.15;;;6.50;;
20170;SDS011;10245;51.344;6.620;2023-03-22T00:18:48;9.93;;;6.30;;
20170;SDS011;10245;51.344;6.620;2023-03-22T00:21:13;12.45;;;6.38;;
20170;SDS011;10245;51.344;6.620;2023-03-22T00:23:38;8.65;;;6.40;;
20170;SDS011;10245;51.344;6.620;2023-03-22T00:26:02;10.27;;;6.90;;
20170;SDS011;10245;51.344;6.620;2023-03-22T00:28:26;11.02;;;6.90;;
20170;SDS011;10245;51.344;6.620;2023-03-22T00:30:50;11.05;;;7.40;;
20170;SDS011;10245;51.344;6.620;2023-03-22T00:33:15;13.15;;;7.25;;
20170;SDS011;10245;51.344;6.620;2023-03-22T00:35:38;10.45;;;7.13;;
20170;SDS011;10245;51.344;6.620;2023-03-22T00:38:03;11.60;;;7.57;;
20170;SDS011;10245;51.344;6.620;2023-03-22T00:40:35;14.98;;;7.45;;
20170;SDS011;10245;51.344;6.620;2023-03-22T00:42:59;8.57;;;6.30;;
20170;SDS011;10245;51.344;6.620;2023-03-22T00:45:23;12.95;;;7.28;;
20170;SDS011;10245;51.344;6.620;2023-03-22T00:47:47;13.73;;;7.30;;
20170;SDS011;10245;51.344;6.620;2023-03-22T00:50:11;12.20;;;7.15;;
20170;SDS011;10245;51.344;6.620;2023-03-22T00:52:35;11.00;;;7.60;;
20170;SDS011;10245;51.344;6.620;2023-03-22T00:54:59;10.68;;;6.82;;
20170;SDS011;10245;51.344;6.620;2023-03-22T00:57:23;10.98;;;7.63;;
20170;SDS011;10245;51.344;6.620;2023-03-22T00:59:49;9.85;;;7.18;;
20170;SDS011;10245;51.344;6.620;2023-03-22T01:02:14;10.90;;;7.35;;
20170;SDS011;10245;51.344;6.620;2023-03-22T01:04:38;10.68;;;7.30;;
20170;SDS011;10245;51.344;6.620;2023-03-22T01:07:06;11.07;;;7.40;;
20170;SDS011;10245;51.344;6.620;2023-03-22T01:09:30;11.13;;;7.25;;
20170;SDS011;10245;51.344;6.620;2023-03-22T01:11:56;15.07;;;8.43;;
20170;SDS011;10245;51.344;6.620;2023-03-22T01:14:19;11.30;;;7.45;;
20170;SDS011;10245;51.344;6.620;2023-03-22T01:16:42;13.30;;;7.82;;
20170;SDS011;10245;51.344;6.620;2023-03-22T01:19:06;14.70;;;8.00;;
20170;SDS011;10245;51.344;6.620;2023-03-22T01:21:29;10.93;;;7.93;;
20170;SDS011;10245;51.344;6.620;2023-03-22T01:23:53;13.23;;;7.57;;
20170;SDS011;10245;51.344;6.620;2023-03-22T01:26:16;13.25;;;7.78;;
20170;SDS011;10245;51.344;6.620;2023-03-22T01:28:41;11.10;;;7.65;;
20170;SDS011;10245;51.344;6.620;2023-03-22T01:31:04;9.10;;;7.30;;
20170;SDS011;10245;51.344;6.620;2023-03-22T01:33:29;15.85;;;9.30;;
20170;SDS011;10245;51.344;6.620;2023-03-22T01:35:52;11.55;;;8.32;;
20170;SDS011;10245;51.344;6.620;2023-03-22T01:38:16;13.15;;;9.32;;
20170;SDS011;10245;51.344;6.620;2023-03-22T01:40:47;12.02;;;8.15;;
20170;SDS011;10245;51.344;6.620;2023-03-22T01:43:12;11.80;;;7.95;;
20170;SDS011;10245;51.344;6.620;2023-03-22T01:45:41;13.80;;;8.10;;
20170;SDS011;10245;51.344;6.620;2023-03-22T01:48:14;14.18;;;8.10;;
20170;SDS011;10245;51.344;6.620;2023-03-22T01:50:47;12.40;;;8.05;;
20170;SDS011;10245;51.344;6.620;2023-03-22T01:53:20;11.15;;;8.77;;
20170;SDS011;10245;51.344;6.620;2023-03-22T01:55:46;12.75;;;8.70;;
20170;SDS011;10245;51.344;6.620;2023-03-22T01:58:17;12.73;;;8.02;;
20170;SDS011;10245;51.344;6.620;2023-03-22T02:00:47;13.68;;;8.35;;
20170;SDS011;10245;51.344;6.620;2023-03-22T02:03:44;12.93;;;8.80;;
20170;SDS011;10245;51.344;6.620;2023-03-22T02:06:12;11.57;;;8.18;;
20170;SDS011;10245;51.344;6.620;2023-03-22T02:08:36;16.02;;;8.00;;
20170;SDS011;10245;51.344;6.620;2023-03-22T02:11:05;14.70;;;8.18;;
20170;SDS011;10245;51.344;6.620;2023-03-22T02:13:34;14.18;;;9.32;;
20170;SDS011;10245;51.344;6.620;2023-03-22T02:16:31;12.23;;;8.32;;
20170;SDS011;10245;51.344;6.620;2023-03-22T02:19:15;14.93;;;8.50;;
20170;SDS011;10245;51.344;6.620;2023-03-22T02:22:35;14.77;;;8.68;;
20170;SDS011;10245;51.344;6.620;2023-03-22T02:28:32;13.75;;;8.50;;
20170;SDS011;10245;51.344;6.620;2023-03-22T02:34:04;12.38;;;8.77;;
20170;SDS011;10245;51.344;6.620;2023-03-22T02:37:38;12.07;;;8.10;;
20170;SDS011;10245;51.344;6.620;2023-03-22T02:40:48;13.18;;;8.55;;
20170;SDS011;10245;51.344;6.620;2023-03-22T02:43:17;12.48;;;8.52;;
20170;SDS011;10245;51.344;6.620;2023-03-22T02:45:55;13.93;;;8.60;;
20170;SDS011;10245;51.344;6.620;2023-03-22T02:48:27;12.25;;;8.55;;
20170;SDS011;10245;51.344;6.620;2023-03-22T02:50:57;15.50;;;8.13;;
20170;SDS011;10245;51.344;6.620;2023-03-22T02:53:26;10.45;;;7.97;;
20170;SDS011;10245;51.344;6.620;2023-03-22T02:55:58;12.70;;;8.30;;
20170;SDS011;10245;51.344;6.620;2023-03-22T02:58:24;11.63;;;7.78;;
20170;SDS011;10245;51.344;6.620;2023-03-22T03:00:52;11.43;;;7.82;;
20170;SDS011;10245;51.344;6.620;2023-03-22T03:03:19;11.65;;;8.20;;
20170;SDS011;10245;51.344;6.620;2023-03-22T03:05:46;12.90;;;7.60;;
20170;SDS011;10245;51.344;6.620;2023-03-22T03:08:14;12.07;;;7.68;;
20170;SDS011;10245;51.344;6.620;2023-03-22T03:10:40;11.95;;;7.22;;
20170;SDS011;10245;51.344;6.620;2023-03-22T03:13:07;12.02;;;7.20;;
20170;SDS011;10245;51.344;6.620;2023-03-22T03:15:33;10.27;;;6.75;;
20170;SDS011;10245;51.344;6.620;2023-03-22T03:18:03;11.07;;;7.40;;
20170;SDS011;10245;51.344;6.620;2023-03-22T03:20:43;11.93;;;7.30;;
20170;SDS011;10245;51.344;6.620;2023-03-22T03:23:23;11.52;;;7.75;;
20170;SDS011;10245;51.344;6.620;2023-03-22T03:25:57;12.52;;;7.35;;
20170;SDS011;10245;51.344;6.620;2023-03-22T03:28:28;11.98;;;6.68;;
20170;SDS011;10245;51.344;6.620;2023-03-22T03:31:01;15.57;;;7.78;;
20170;SDS011;10245;51.344;6.620;2023-03-22T03:33:33;10.35;;;6.80;;
20170;SDS011;10245;51.344;6.620;2023-03-22T03:36:01;9.75;;;6.85;;
20170;SDS011;10245;51.344;6.620;2023-03-22T03:38:28;10.00;;;6.78;;
20170;SDS011;10245;51.344;6.620;2023-03-22T03:40:54;13.73;;;7.53;;
20170;SDS011;10245;51.344;6.620;2023-03-22T03:43:22;11.43;;;7.68;;
20170;SDS011;10245;51.344;6.620;2023-03-22T03:45:48;9.65;;;7.05;;
20170;SDS011;10245;51.344;6.620;2023-03-22T03:48:13;11.48;;;6.72;;
20170;SDS011;10245;51.344;6.620;2023-03-22T03:50:40;9.88;;;6.63;;
20170;SDS011;10245;51.344;6.620;2023-03-22T03:53:05;10.02;;;6.70;;
20170;SDS011;10245;51.344;6.620;2023-03-22T03:55:28;11.20;;;6.90;;
20170;SDS011;10245;51.344;6.620;2023-03-22T03:57:53;13.95;;;7.65;;
20170;SDS011;10245;51.344;6.620;2023-03-22T04:00:17;16.00;;;7.25;;
20170;SDS011;10245;51.344;6.620;2023-03-22T04:03:02;11.07;;;6.32;;
20170;SDS011;10245;51.344;6.620;2023-03-22T04:05:37;10.85;;;6.47;;
20170;SDS011;10245;51.344;6.620;2023-03-22T04:08:01;10.70;;;6.35;;
20170;SDS011;10245;51.344;6.620;2023-03-22T04:10:26;9.90;;;6.15;;
20170;SDS011;10245;51.344;6.620;2023-03-22T04:12:50;12.77;;;6.45;;
20170;SDS011;10245;51.344;6.620;2023-03-22T04:15:14;10.75;;;6.32;;
20170;SDS011;10245;51.344;6.620;2023-03-22T04:17:42;12.88;;;7.13;;
20170;SDS011;10245;51.344;6.620;2023-03-22T04:20:09;11.48;;;6.38;;
20170;SDS011;10245;51.344;6.620;2023-03-22T04:22:34;10.45;;;6.32;;
20170;SDS011;10245;51.344;6.620;2023-03-22T04:24:58;11.70;;;6.78;;
20170;SDS011;10245;51.344;6.620;2023-03-22T04:27:22;10.70;;;6.95;;
20170;SDS011;10245;51.344;6.620;2023-03-22T04:29:54;11.10;;;6.13;;
20170;SDS011;10245;51.344;6.620;2023-03-22T04:32:36;12.98;;;6.47;;
20170;SDS011;10245;51.344;6.620;2023-03-22T04:35:00;10.35;;;5.95;;
20170;SDS011;10245;51.344;6.620;2023-03-22T04:37:26;11.75;;;6.55;;
20170;SDS011;10245;51.344;6.620;2023-03-22T04:40:04;14.15;;;7.03;;
20170;SDS011;10245;51.344;6.620;2023-03-22T04:42:38;10.43;;;6.32;;
20170;SDS011;10245;51.344;6.620;2023-03-22T04:45:09;9.85;;;5.97;;
20170;SDS011;10245;51.344;6.620;2023-03-22T04:47:35;12.13;;;6.47;;
20170;SDS011;10245;51.344;6.620;2023-03-22T04:50:00;11.38;;;6.55;;
20170;SDS011;10245;51.344;6.620;2023-03-22T04:52:29;9.15;;;5.50;;
20170;SDS011;10245;51.344;6.620;2023-03-22T04:54:54;10.20;;;5.75;;
20170;SDS011;10245;51.344;6.620;2023-03-22T04:57:18;10.43;;;5.85;;
20170;SDS011;10245;51.344;6.620;2023-03-22T04:59:42;11.52;;;5.85;;
20170;SDS011;10245;51.344;6.620;2023-03-22T05:02:05;9.88;;;6.18;;
20170;SDS011;10245;51.344;6.620;2023-03-22T05:04:35;12.20;;;5.95;;
20170;SDS011;10245;51.344;6.620;2023-03-22T05:07:07;10.32;;;5.70;;
20170;SDS011;10245;51.344;6.620;2023-03-22T05:09:41;10.23;;;5.40;;
20170;SDS011;10245;51.344;6.620;2023-03-22T05:12:05;11.02;;;5.07;;
20170;SDS011;10245;51.344;6.620;2023-03-22T05:14:51;9.95;;;5.25;;
20170;SDS011;10245;51.344;6.620;2023-03-22T05:17:19;12.13;;;5.15;;
20170;SDS011;10245;51.344;6.620;2023-03-22T05:19:45;7.97;;;4.63;;
20170;SDS011;10245;51.344;6.620;2023-03-22T05:22:08;10.20;;;5.03;;
20170;SDS011;10245;51.344;6.620;2023-03-22T05:24:37;9.85;;;4.55;;
20170;SDS011;10245;51.344;6.620;2023-03-22T05:27:07;10.30;;;4.63;;
20170;SDS011;10245;51.344;6.620;2023-03-22T05:29:31;10.10;;;4.82;;
20170;SDS011;10245;51.344;6.620;2023-03-22T05:32:03;9.85;;;4.88;;
20170;SDS011;10245;51.344;6.620;2023-03-22T05:34:28;12.85;;;5.47;;
20170;SDS011;10245;51.344;6.620;2023-03-22T05:37:05;9.75;;;5.00;;
20170;SDS011;10245;51.344;6.620;2023-03-22T05:39:40;10.00;;;5.32;;
20170;SDS011;10245;51.344;6.620;2023-03-22T05:42:03;11.68;;;5.15;;
20170;SDS011;10245;51.344;6.620;2023-03-22T05:44:30;10.40;;;6.03;;
20170;SDS011;10245;51.344;6.620;2023-03-22T05:47:00;12.27;;;6.10;;
20170;SDS011;10245;51.344;6.620;2023-03-22T05:49:28;11.82;;;6.10;;
20170;SDS011;10245;51.344;6.620;2023-03-22T05:51:52;11.68;;;5.80;;
20170;SDS011;10245;51.344;6.620;2023-03-22T05:54:19;11.95;;;6.28;;
20170;SDS011;10245;51.344;6.620;2023-03-22T05:56:44;13.00;;;5.85;;
20170;SDS011;10245;51.344;6.620;2023-03-22T05:59:07;9.23;;;5.60;;
20170;SDS011;10245;51.344;6.620;2023-03-22T06:01:32;10.77;;;5.93;;
20170;SDS011;10245;51.344;6.620;2023-03-22T06:04:21;12.45;;;6.50;;
20170;SDS011;10245;51.344;6.620;2023-03-22T06:06:49;10.93;;;6.38;;
20170;SDS011;10245;51.344;6.620;2023-03-22T06:09:26;10.73;;;6.57;;
20170;SDS011;10245;51.344;6.620;2023-03-22T06:11:49;12.15;;;6.28;;
20170;SDS011;10245;51.344;6.620;2023-03-22T06:14:13;9.80;;;6.07;;
20170;SDS011;10245;51.344;6.620;2023-03-22T06:16:52;12.27;;;5.72;;
20170;SDS011;10245;51.344;6.620;2023-03-22T06:19:16;9.60;;;5.70;;
20170;SDS011;10245;51.344;6.620;2023-03-22T06:21:41;14.18;;;5.68;;
20170;SDS011;10245;51.344;6.620;2023-03-22T06:24:06;9.68;;;4.55;;
20170;SDS011;10245;51.344;6.620;2023-03-22T06:26:30;10.07;;;5.18;;
20170;SDS011;10245;51.344;6.620;2023-03-22T06:28:54;11.25;;;5.22;;
20170;SDS011;10245;51.344;6.620;2023-03-22T06:31:17;6.95;;;4.63;;
20170;SDS011;10245;51.344;6.620;2023-03-22T06:33:46;11.10;;;4.13;;
20170;SDS011;10245;51.344;6.620;2023-03-22T06:36:25;13.30;;;4.43;;
20170;SDS011;10245;51.344;6.620;2023-03-22T06:39:09;9.93;;;4.03;;
20170;SDS011;10245;51.344;6.620;2023-03-22T06:41:35;12.88;;;4.25;;
20170;SDS011;10245;51.344;6.620;2023-03-22T06:43:58;10.02;;;4.07;;
20170;SDS011;10245;51.344;6.620;2023-03-22T06:46:49;6.32;;;3.67;;
20170;SDS011;10245;51.344;6.620;2023-03-22T06:49:31;11.10;;;4.05;;
20170;SDS011;10245;51.344;6.620;2023-03-22T06:51:54;11.23;;;4.10;;
20170;SDS011;10245;51.344;6.620;2023-03-22T06:54:18;9.00;;;4.15;;
20170;SDS011;10245;51.344;6.620;2023-03-22T06:56:41;5.80;;;3.40;;
20170;SDS011;10245;51.344;6.620;2023-03-22T06:59:05;11.52;;;3.97;;
20170;SDS011;10245;51.344;6.620;2023-03-22T07:01:28;10.65;;;4.15;;
20170;SDS011;10245;51.344;6.620;2023-03-22T07:03:52;11.70;;;3.33;;
20170;SDS011;10245;51.344;6.620;2023-03-22T07:06:18;10.75;;;3.83;;
20170;SDS011;10245;51.344;6.620;2023-03-22T07:08:43;12.05;;;3.92;;
20170;SDS011;10245;51.344;6.620;2023-03-22T07:11:11;10.25;;;3.45;;
20170;SDS011;10245;51.344;6.620;2023-03-22T07:13:36;12.30;;;3.10;;
20170;SDS011;10245;51.344;6.620;2023-03-22T07:16:05;13.40;;;3.55;;
20170;SDS011;10245;51.344;6.620;2023-03-22T07:18:51;9.77;;;3.47;;
20170;SDS011;10245;51.344;6.620;2023-03-22T07:21:16;8.18;;;3.55;;
20170;SDS011;10245;51.344;6.620;2023-03-22T07:23:46;10.95;;;3.50;;
20170;SDS011;10245;51.344;6.620;2023-03-22T07:26:11;9.45;;;3.30;;
20170;SDS011;10245;51.344;6.620;2023-03-22T07:28:37;11.25;;;3.28;;
20170;SDS011;10245;51.344;6.620;2023-03-22T07:31:07;7.65;;;2.70;;
20170;SDS011;10245;51.344;6.620;2023-03-22T07:33:49;11.63;;;3.58;;
20170;SDS011;10245;51.344;6.620;2023-03-22T07:36:15;8.13;;;2.58;;
20170;SDS011;10245;51.344;6.620;2023-03-22T07:38:44;8.45;;;2.70;;
20170;SDS011;10245;51.344;6.620;2023-03-22T07:41:13;9.80;;;2.40;;
20170;SDS011;10245;51.344;6.620;2023-03-22T07:44:05;9.82;;;2.75;;
20170;SDS011;10245;51.344;6.620;2023-03-22T07:46:57;9.23;;;2.92;;
20170;SDS011;10245;51.344;6.620;2023-03-22T07:49:29;9.45;;;2.65;;
20170;SDS011;10245;51.344;6.620;2023-03-22T07:51:53;9.73;;;2.58;;
20170;SDS011;10245;51.344;6.620;2023-03-22T07:54:19;9.90;;;2.65;;
20170;SDS011;10245;51.344;6.620;2023-03-22T07:56:54;9.65;;;2.63;;
20170;SDS011;10245;51.344;6.620;2023-03-22T07:59:17;6.28;;;2.28;;
20170;SDS011;10245;51.344;6.620;2023-03-22T08:01:43;12.88;;;2.90;;
20170;SDS011;10245;51.344;6.620;2023-03-22T08:04:16;7.85;;;2.45;;
20170;SDS011;10245;51.344;6.620;2023-03-22T08:06:55;7.38;;;2.05;;
20170;SDS011;10245;51.344;6.620;2023-03-22T08:09:22;4.65;;;2.13;;
20170;SDS011;10245;51.344;6.620;2023-03-22T08:11:46;11.20;;;2.83;;
20170;SDS011;10245;51.344;6.620;2023-03-22T08:14:09;6.97;;;2.28;;
20170;SDS011;10245;51.344;6.620;2023-03-22T08:16:33;5.57;;;2.22;;
20170;SDS011;10245;51.344;6.620;2023-03-22T08:18:58;10.73;;;2.20;;
20170;SDS011;10245;51.344;6.620;2023-03-22T08:21:23;6.80;;;2.15;;
20170;SDS011;10245;51.344;6.620;2023-03-22T08:23:49;3.85;;;1.70;;
20170;SDS011;10245;51.344;6.620;2023-03-22T08:26:34;5.80;;;2.25;;
20170;SDS011;10245;51.344;6.620;2023-03-22T08:29:06;8.70;;;2.65;;
20170;SDS011;10245;51.344;6.620;2023-03-22T08:31:30;6.32;;;2.05;;
20170;SDS011;10245;51.344;6.620;2023-03-22T08:33:54;6.38;;;2.03;;
20170;SDS011;10245;51.344;6.620;2023-03-22T08:36:17;6.07;;;2.17;;
20170;SDS011;10245;51.344;6.620;2023-03-22T08:38:51;5.30;;;2.20;;
20170;SDS011;10245;51.344;6.620;2023-03-22T08:41:25;8.07;;;2.70;;
20170;SDS011;10245;51.344;6.620;2023-03-22T08:43:50;6.25;;;2.03;;
20170;SDS011;10245;51.344;6.620;2023-03-22T08:46:13;10.80;;;2.47;;
20170;SDS011;10245;51.344;6.620;2023-03-22T08:48:39;7.78;;;2.20;;
20170;SDS011;10245;51.344;6.620;2023-03-22T08:51:12;11.48;;;2.55;;
20170;SDS011;10245;51.344;6.620;2023-03-22T08:53:45;6.90;;;1.98;;
20170;SDS011;10245;51.344;6.620;2023-03-22T08:56:38;10.20;;;2.50;;
20170;SDS011;10245;51.344;6.620;2023-03-22T08:59:16;5.57;;;1.95;;
20170;SDS011;10245;51.344;6.620;2023-03-22T09:01:59;9.48;;;2.78;;
20170;SDS011;10245;51.344;6.620;2023-03-22T09:04:23;6.55;;;2.97;;
20170;SDS011;10245;51.344;6.620;2023-03-22T09:06:47;5.50;;;2.10;;
20170;SDS011;10245;51.344;6.620;2023-03-22T09:09:10;10.02;;;2.67;;
20170;SDS011;10245;51.344;6.620;2023-03-22T09:11:36;11.77;;;2.60;;
20170;SDS011;10245;51.344;6.620;2023-03-22T09:14:01;5.47;;;2.60;;
20170;SDS011;10245;51.344;6.620;2023-03-22T09:16:28;8.18;;;2.58;;
20170;SDS011;10245;51.344;6.620;2023-03-22T09:18:54;7.20;;;2.30;;
20170;SDS011;10245;51.344;6.620;2023-03-22T09:21:17;7.88;;;2.50;;
20170;SDS011;10245;51.344;6.620;2023-03-22T09:24:02;5.13;;;2.38;;
20170;SDS011;10245;51.344;6.620;2023-03-22T09:26:33;3.90;;;1.98;;
20170;SDS011;10245;51.344;6.620;2023-03-22T09:28:57;5.38;;;2.15;;
20170;SDS011;10245;51.344;6.620;2023-03-22T09:31:21;7.95;;;2.35;;
20170;SDS011;10245;51.344;6.620;2023-03-22T09:33:57;9.95;;;2.97;;
20170;SDS011;10245;51.344;6.620;2023-03-22T09:36:21;4.90;;;2.08;;
20170;SDS011;10245;51.344;6.620;2023-03-22T09:38:44;6.47;;;2.53;;
20170;SDS011;10245;51.344;6.620;2023-03-22T09:41:11;8.63;;;2.35;;
20170;SDS011;10245;51.344;6.620;2023-03-22T09:43:40;6.72;;;2.15;;
20170;SDS011;10245;51.344;6.620;2023-03-22T09:46:10;4.63;;;2.10;;
20170;SDS011;10245;51.344;6.620;2023-03-22T09:48:38;7.13;;;2.45;;
20170;SDS011;10245;51.344;6.620;2023-03-22T09:51:06;5.30;;;2.20;;
20170;SDS011;10245;51.344;6.620;2023-03-22T09:53:48;8.48;;;1.92;;
20170;SDS011;10245;51.344;6.620;2023-03-22T09:56:12;7.45;;;2.60;;
20170;SDS011;10245;51.344;6.620;2023-03-22T09:58:40;7.03;;;1.75;;
20170;SDS011;10245;51.344;6.620;2023-03-22T10:01:10;8.48;;;2.60;;
20170;SDS011;10245;51.344;6.620;2023-03-22T10:03:48;9.63;;;2.33;;
20170;SDS011;10245;51.344;6.620;2023-03-22T10:06:53;5.03;;;2.30;;
20170;SDS011;10245;51.344;6.620;2023-03-22T10:09:27;7.85;;;2.35;;
20170;SDS011;10245;51.344;6.620;2023-03-22T10:11:57;8.68;;;2.03;;
20170;SDS011;10245;51.344;6.620;2023-03-22T10:14:29;10.73;;;2.03;;
20170;SDS011;10245;51.344;6.620;2023-03-22T10:16:57;5.95;;;2.20;;
20170;SDS011;10245;51.344;6.620;2023-03-22T10:19:26;5.32;;;1.98;;
20170;SDS011;10245;51.344;6.620;2023-03-22T10:21:58;8.55;;;2.72;;
20170;SDS011;10245;51.344;6.620;2023-03-22T10:24:25;9.88;;;2.63;;
20170;SDS011;10245;51.344;6.620;2023-03-22T10:26:53;9.40;;;2.17;;
20170;SDS011;10245;51.344;6.620;2023-03-22T10:29:18;6.80;;;2.30;;
20170;SDS011;10245;51.344;6.620;2023-03-22T10:31:45;9.30;;;2.33;;
20170;SDS011;10245;51.344;6.620;2023-03-22T10:34:11;5.93;;;2.05;;
20170;SDS011;10245;51.344;6.620;2023-03-22T10:36:42;7.75;;;2.13;;
20170;SDS011;10245;51.344;6.620;2023-03-22T10:39:11;6.88;;;1.90;;
20170;SDS011;10245;51.344;6.620;2023-03-22T10:41:47;7.50;;;2.05;;
20170;SDS011;10245;51.344;6.620;2023-03-22T10:44:12;7.50;;;1.92;;
20170;SDS011;10245;51.344;6.620;2023-03-22T10:46:39;4.40;;;1.92;;
20170;SDS011;10245;51.344;6.620;2023-03-22T10:49:04;7.07;;;2.00;;
20170;SDS011;10245;51.344;6.620;2023-03-22T10:51:29;7.03;;;2.40;;
20170;SDS011;10245;51.344;6.620;2023-03-22T10:54:00;7.40;;;1.60;;
20170;SDS011;10245;51.344;6.620;2023-03-22T10:56:27;5.30;;;1.67;;
20170;SDS011;10245;51.344;6.620;2023-03-22T10:58:50;5.65;;;1.98;;
20170;SDS011;10245;51.344;6.620;2023-03-22T11:01:14;8.38;;;2.17;;
20170;SDS011;10245;51.344;6.620;2023-03-22T11:03:47;9.77;;;2.20;;
20170;SDS011;10245;51.344;6.620;2023-03-22T11:06:14;10.95;;;2.45;;
20170;SDS011;10245;51.344;6.620;2023-03-22T11:08:40;7.90;;;2.40;;
20170;SDS011;10245;51.344;6.620;2023-03-22T11:11:11;9.68;;;2.00;;
20170;SDS011;10245;51.344;6.620;2023-03-22T11:13:42;4.53;;;1.73;;
20170;SDS011;10245;51.344;6.620;2023-03-22T11:16:13;8.80;;;1.95;;
20170;SDS011;10245;51.344;6.620;2023-03-22T11:18:40;11.10;;;2.25;;
20170;SDS011;10245;51.344;6.620;2023-03-22T11:21:05;7.75;;;2.20;;
20170;SDS011;10245;51.344;6.620;2023-03-22T11:23:32;7.85;;;2.05;;
20170;SDS011;10245;51.344;6.620;2023-03-22T11:25:59;6.97;;;1.92;;
20170;SDS011;10245;51.344;6.620;2023-03-22T11:28:32;3.97;;;1.67;;
20170;SDS011;10245;51.344;6.620;2023-03-22T11:31:01;9.80;;;2.13;;
20170;SDS011;10245;51.344;6.620;2023-03-22T11:33:28;5.43;;;2.00;;
20170;SDS011;10245;51.344;6.620;2023-03-22T11:35:53;9.07;;;2.10;;
20170;SDS011;10245;51.344;6.620;2023-03-22T11:38:21;8.77;;;2.28;;
20170;SDS011;10245;51.344;6.620;2023-03-22T11:40:52;4.75;;;1.45;;
20170;SDS011;10245;51.344;6.620;2023-03-22T11:43:19;10.63;;;1.70;;
20170;SDS011;10245;51.344;6.620;2023-03-22T11:45:46;6.07;;;1.85;;
20170;SDS011;10245;51.344;6.620;2023-03-22T11:48:16;5.65;;;1.65;;
20170;SDS011;10245;51.344;6.620;2023-03-22T11:50:43;5.47;;;2.20;;
20170;SDS011;10245;51.344;6.620;2023-03-22T11:53:10;4.72;;;1.95;;
20170;SDS011;10245;51.344;6.620;2023-03-22T11:55:37;6.03;;;2.10;;
20170;SDS011;10245;51.344;6.620;2023-03-22T11:58:01;6.63;;;2.13;;
20170;SDS011;10245;51.344;6.620;2023-03-22T12:00:26;9.40;;;1.98;;
20170;SDS011;10245;51.344;6.620;2023-03-22T12:02:52;5.97;;;1.80;;
20170;SDS011;10245;51.344;6.620;2023-03-22T12:05:22;5.78;;;2.05;;
20170;SDS011;10245;51.344;6.620;2023-03-22T12:07:50;6.47;;;2.00;;
20170;SDS011;10245;51.344;6.620;2023-03-22T12:10:18;11.75;;;1.92;;
20170;SDS011;10245;51.344;6.620;2023-03-22T12:12:49;5.28;;;1.70;;
20170;SDS011;10245;51.344;6.620;2023-03-22T12:15:16;4.53;;;1.63;;
20170;SDS011;10245;51.344;6.620;2023-03-22T12:17:46;6.20;;;1.67;;
20170;SDS011;10245;51.344;6.620;2023-03-22T12:20:16;5.28;;;2.00;;
20170;SDS011;10245;51.344;6.620;2023-03-22T12:23:00;5.95;;;1.88;;
20170;SDS011;10245;51.344;6.620;2023-03-22T12:25:24;5.47;;;1.88;;
20170;SDS011;10245;51.344;6.620;2023-03-22T12:27:53;5.85;;;1.75;;
20170;SDS011;10245;51.344;6.620;2023-03-22T12:30:20;8.27;;;1.95;;
20170;SDS011;10245;51.344;6.620;2023-03-22T12:32:48;6.72;;;1.88;;
20170;SDS011;10245;51.344;6.620;2023-03-22T12:35:17;5.18;;;1.75;;
20170;SDS011;10245;51.344;6.620;2023-03-22T12:37:47;5.53;;;1.60;;
20170;SDS011;10245;51.344;6.620;2023-03-22T12:40:18;5.78;;;2.10;;
20170;SDS011;10245;51.344;6.620;2023-03-22T12:42:47;3.97;;;1.77;;
20170;SDS011;10245;51.344;6.620;2023-03-22T12:45:23;5.60;;;1.90;;
20170;SDS011;10245;51.344;6.620;2023-03-22T12:47:50;5.22;;;1.83;;
20170;SDS011;10245;51.344;6.620;2023-03-22T12:50:20;5.47;;;1.80;;
20170;SDS011;10245;51.344;6.620;2023-03-22T12:52:49;5.50;;;1.65;;
20170;SDS011;10245;51.344;6.620;2023-03-22T12:55:19;4.15;;;1.80;;
20170;SDS011;10245;51.344;6.620;2023-03-22T12:57:45;5.65;;;1.80;;
20170;SDS011;10245;51.344;6.620;2023-03-22T13:00:13;4.95;;;1.70;;
20170;SDS011;10245;51.344;6.620;2023-03-22T13:02:38;3.85;;;1.50;;
20170;SDS011;10245;51.344;6.620;2023-03-22T13:05:09;7.18;;;2.08;;
20170;SDS011;10245;51.344;6.620;2023-03-22T13:07:37;5.10;;;1.80;;
20170;SDS011;10245;51.344;6.620;2023-03-22T13:13:12;7.68;;;1.90;;
20170;SDS011;10245;51.344;6.620;2023-03-22T13:15:58;6.32;;;1.92;;
20170;SDS011;10245;51.344;6.620;2023-03-22T13:18:28;6.03;;;2.13;;
20170;SDS011;10245;51.344;6.620;2023-03-22T13:21:10;6.75;;;1.95;;
20170;SDS011;10245;51.344;6.620;2023-03-22T13:23:36;5.18;;;1.88;;
20170;SDS011;10245;51.344;6.620;2023-03-22T13:26:17;8.85;;;2.15;;
20170;SDS011;10245;51.344;6.620;2023-03-22T13:28:41;5.68;;;1.90;;
20170;SDS011;10245;51.344;6.620;2023-03-22T13:31:19;6.95;;;1.90;;
20170;SDS011;10245;51.344;6.620;2023-03-22T13:33:55;6.07;;;2.03;;
20170;SDS011;10245;51.344;6.620;2023-03-22T13:36:24;6.78;;;2.15;;
20170;SDS011;10245;51.344;6.620;2023-03-22T13:38:54;6.22;;;1.95;;
20170;SDS011;10245;51.344;6.620;2023-03-22T13:41:20;7.25;;;2.00;;
20170;SDS011;10245;51.344;6.620;2023-03-22T13:43:49;7.18;;;1.98;;
20170;SDS011;10245;51.344;6.620;2023-03-22T13:49:13;4.40;;;2.03;;
20170;SDS011;10245;51.344;6.620;2023-03-22T13:51:50;6.55;;;2.13;;
20170;SDS011;10245;51.344;6.620;2023-03-22T13:54:19;6.63;;;1.98;;
20170;SDS011;10245;51.344;6.620;2023-03-22T13:56:50;7.25;;;2.05;;
20170;SDS011;10245;51.344;6.620;2023-03-22T13:59:18;8.20;;;1.95;;
20170;SDS011;10245;51.344;6.620;2023-03-22T14:01:48;6.72;;;2.03;;
20170;SDS011;10245;51.344;6.620;2023-03-22T14:04:14;10.88;;;2.20;;
20170;SDS011;10245;51.344;6.620;2023-03-22T14:06:46;3.67;;;2.05;;
20170;SDS011;10245;51.344;6.620;2023-03-22T14:09:17;5.03;;;1.63;;
20170;SDS011;10245;51.344;6.620;2023-03-22T14:11:47;4.78;;;1.90;;
20170;SDS011;10245;51.344;6.620;2023-03-22T14:14:18;5.38;;;1.80;;
20170;SDS011;10245;51.344;6.620;2023-03-22T14:16:47;4.75;;;1.58;;
20170;SDS011;10245;51.344;6.620;2023-03-22T14:19:14;10.35;;;2.00;;
20170;SDS011;10245;51.344;6.620;2023-03-22T14:21:42;7.82;;;1.92;;
20170;SDS011;10245;51.344;6.620;2023-03-22T14:24:11;3.83;;;1.60;;
20170;SDS011;10245;51.344;6.620;2023-03-22T14:26:37;4.43;;;1.55;;
20170;SDS011;10245;51.344;6.620;2023-03-22T14:29:03;5.90;;;2.10;;
20170;SDS011;10245;51.344;6.620;2023-03-22T14:31:29;4.65;;;1.70;;
20170;SDS011;10245;51.344;6.620;2023-03-22T14:33:51;5.05;;;1.70;;
20170;SDS011;10245;51.344;6.620;2023-03-22T14:36:14;4.72;;;1.90;;
20170;SDS011;10245;51.344;6.620;2023-03-22T14:38:39;5.85;;;1.70;;
20170;SDS011;10245;51.344;6.620;2023-03-22T14:41:08;3.40;;;1.55;;
20170;SDS011;10245;51.344;6.620;2023-03-22T14:43:35;3.58;;;1.42;;
20170;SDS011;10245;51.344;6.620;2023-03-22T14:46:00;5.45;;;1.75;;
20170;SDS011;10245;51.344;6.620;2023-03-22T14:48:28;3.92;;;1.70;;
20170;SDS011;10245;51.344;6.620;2023-03-22T14:50:53;6.80;;;1.67;;
20170;SDS011;10245;51.344;6.620;2023-03-22T14:53:17;6.80;;;2.20;;
20170;SDS011;10245;51.344;6.620;2023-03-22T14:55:50;3.17;;;1.60;;
20170;SDS011;10245;51.344;6.620;2023-03-22T14:58:14;8.85;;;2.22;;
20170;SDS011;10245;51.344;6.620;2023-03-22T15:00:40;6.70;;;2.20;;
20170;SDS011;10245;51.344;6.620;2023-03-22T15:03:03;6.50;;;2.10;;
20170;SDS011;10245;51.344;6.620;2023-03-22T15:05:32;9.50;;;2.40;;